Portada
METAR-TAF:

METAR-TAF

Aeroports :

Dakar, Senegal

latitud: 14-44N, longitud: 017-30W, altitud: 27 m

Observació

L'informe es va fer fa 36 minuts, a les 10:00 UTC
Vent 16 kt del Est/Nord-Est
Temperatura 27°C
Humitat 37%
Pressió 1011 hPa
Visibilitat: 2800 m
Pols estès

METAR: GOOY 261000Z 06016KT 2800 DU NSC 27/11 Q1011

Hora: 10:36 (10:36 UTC)

Pronòstic

L'informe es va fer fa 4 hores i 41 minuts, a les 05:55 UTC
Pronòstic vàlid del 26 a les 06 UTC al 27 a les 12 UTC
Vent 10 kt del Nord/Nord-Est
Visibilitat: 3000 m
Pols estès

TAF: GOOY 260555Z 2606/2712 03010KT 3000 DU NSC

Observacions i pronòstics meteorològics de més de 4000 aeroports (METAR i TAF).

Les estacions disponibles són els punts grocs i vermells al mapa.

Posi el ratolí al punt desitjat per veure el nom de l'estació.

Feu clic per veure les observacions i els pronòstics meteorològics.

Per canviar el mapa: feu clic els botons verds amb una creu de color negre per apropar; al botó verd amb un guió per allunyar la imatge; o en les fletxes verdes per a mapes adjacents.


METAR-TAF: